sensor_id;sensor_type;location;lat;lon;timestamp;temperature;humidity
58517;DHT22;44308;50.810;0.284;2023-05-16T00:00:30;8.60;99.90
58517;DHT22;44308;50.810;0.284;2023-05-16T00:03:00;8.50;99.90
58517;DHT22;44308;50.810;0.284;2023-05-16T00:05:27;8.50;99.90
58517;DHT22;44308;50.810;0.284;2023-05-16T00:07:53;8.50;99.90
58517;DHT22;44308;50.810;0.284;2023-05-16T00:10:19;8.50;99.90
58517;DHT22;44308;50.810;0.284;2023-05-16T00:12:44;8.50;99.90
58517;DHT22;44308;50.810;0.284;2023-05-16T00:15:14;8.50;99.90
58517;DHT22;44308;50.810;0.284;2023-05-16T00:17:41;8.40;99.90
58517;DHT22;44308;50.810;0.284;2023-05-16T00:20:11;8.40;99.90
58517;DHT22;44308;50.810;0.284;2023-05-16T00:22:39;8.40;99.90
58517;DHT22;44308;50.810;0.284;2023-05-16T00:25:05;8.40;99.90
58517;DHT22;44308;50.810;0.284;2023-05-16T00:27:33;8.30;99.90
58517;DHT22;44308;50.810;0.284;2023-05-16T00:30:01;8.30;99.90
58517;DHT22;44308;50.810;0.284;2023-05-16T00:32:27;8.20;99.90
58517;DHT22;44308;50.810;0.284;2023-05-16T00:34:52;8.20;99.90
58517;DHT22;44308;50.810;0.284;2023-05-16T00:37:18;8.20;99.90
58517;DHT22;44308;50.810;0.284;2023-05-16T00:39:44;8.20;99.90
58517;DHT22;44308;50.810;0.284;2023-05-16T00:42:09;8.20;99.90
58517;DHT22;44308;50.810;0.284;2023-05-16T00:44:35;8.20;99.90
58517;DHT22;44308;50.810;0.284;2023-05-16T00:47:01;8.20;99.90
58517;DHT22;44308;50.810;0.284;2023-05-16T00:49:28;8.20;99.90
58517;DHT22;44308;50.810;0.284;2023-05-16T00:51:55;8.20;99.90
58517;DHT22;44308;50.810;0.284;2023-05-16T00:54:22;8.20;99.90
58517;DHT22;44308;50.810;0.284;2023-05-16T00:56:50;8.20;99.90
58517;DHT22;44308;50.810;0.284;2023-05-16T00:59:17;8.20;99.90
58517;DHT22;44308;50.810;0.284;2023-05-16T01:01:45;8.20;99.90
58517;DHT22;44308;50.810;0.284;2023-05-16T01:04:13;8.20;99.90
58517;DHT22;44308;50.810;0.284;2023-05-16T01:06:39;8.10;99.90
58517;DHT22;44308;50.810;0.284;2023-05-16T01:09:05;8.10;99.90
58517;DHT22;44308;50.810;0.284;2023-05-16T01:11:38;8.00;99.90
58517;DHT22;44308;50.810;0.284;2023-05-16T01:16:53;8.00;99.90
58517;DHT22;44308;50.810;0.284;2023-05-16T01:22:15;8.00;99.90
58517;DHT22;44308;50.810;0.284;2023-05-16T01:25:05;7.90;99.90
58517;DHT22;44308;50.810;0.284;2023-05-16T01:27:37;7.90;99.90
58517;DHT22;44308;50.810;0.284;2023-05-16T01:30:17;7.90;99.90
58517;DHT22;44308;50.810;0.284;2023-05-16T01:32:43;7.90;99.90
58517;DHT22;44308;50.810;0.284;2023-05-16T01:35:14;7.90;99.90
58517;DHT22;44308;50.810;0.284;2023-05-16T01:43:48;7.70;99.90
58517;DHT22;44308;50.810;0.284;2023-05-16T01:46:28;7.70;99.90
58517;DHT22;44308;50.810;0.284;2023-05-16T01:49:14;7.70;99.90
58517;DHT22;44308;50.810;0.284;2023-05-16T01:51:53;7.70;99.90
58517;DHT22;44308;50.810;0.284;2023-05-16T01:54:21;7.70;99.90
58517;DHT22;44308;50.810;0.284;2023-05-16T01:56:56;7.60;99.90
58517;DHT22;44308;50.810;0.284;2023-05-16T01:59:25;7.50;99.90
58517;DHT22;44308;50.810;0.284;2023-05-16T02:01:56;7.50;99.90
58517;DHT22;44308;50.810;0.284;2023-05-16T02:04:22;7.50;99.90
58517;DHT22;44308;50.810;0.284;2023-05-16T02:06:49;7.50;99.90
58517;DHT22;44308;50.810;0.284;2023-05-16T02:12:44;7.40;99.90
58517;DHT22;44308;50.810;0.284;2023-05-16T02:15:09;7.40;99.90
58517;DHT22;44308;50.810;0.284;2023-05-16T02:17:35;7.30;99.90
58517;DHT22;44308;50.810;0.284;2023-05-16T02:20:01;7.30;99.90
58517;DHT22;44308;50.810;0.284;2023-05-16T02:22:32;7.30;99.90
58517;DHT22;44308;50.810;0.284;2023-05-16T02:24:59;7.30;99.90
58517;DHT22;44308;50.810;0.284;2023-05-16T02:27:25;7.20;99.90
58517;DHT22;44308;50.810;0.284;2023-05-16T02:29:51;7.20;99.90
58517;DHT22;44308;50.810;0.284;2023-05-16T02:32:17;7.20;99.90
58517;DHT22;44308;50.810;0.284;2023-05-16T02:34:42;7.20;99.90
58517;DHT22;44308;50.810;0.284;2023-05-16T02:37:08;7.30;99.90
58517;DHT22;44308;50.810;0.284;2023-05-16T02:39:35;7.30;99.90
58517;DHT22;44308;50.810;0.284;2023-05-16T02:42:00;7.30;99.90
58517;DHT22;44308;50.810;0.284;2023-05-16T02:44:26;7.20;99.90
58517;DHT22;44308;50.810;0.284;2023-05-16T02:46:52;7.20;99.90
58517;DHT22;44308;50.810;0.284;2023-05-16T02:49:17;7.10;99.90
58517;DHT22;44308;50.810;0.284;2023-05-16T02:51:43;7.10;99.90
58517;DHT22;44308;50.810;0.284;2023-05-16T02:54:09;7.10;99.90
58517;DHT22;44308;50.810;0.284;2023-05-16T02:56:35;7.10;99.90
58517;DHT22;44308;50.810;0.284;2023-05-16T02:59:03;7.10;99.90
58517;DHT22;44308;50.810;0.284;2023-05-16T03:01:29;7.10;99.90
58517;DHT22;44308;50.810;0.284;2023-05-16T03:03:55;7.10;99.90
58517;DHT22;44308;50.810;0.284;2023-05-16T03:06:21;7.00;99.90
58517;DHT22;44308;50.810;0.284;2023-05-16T03:08:47;7.10;99.90
58517;DHT22;44308;50.810;0.284;2023-05-16T03:11:13;7.10;99.90
58517;DHT22;44308;50.810;0.284;2023-05-16T03:13:42;7.20;99.90
58517;DHT22;44308;50.810;0.284;2023-05-16T03:16:08;7.20;99.90
58517;DHT22;44308;50.810;0.284;2023-05-16T03:18:34;7.10;99.90
58517;DHT22;44308;50.810;0.284;2023-05-16T03:20:59;7.10;99.90
58517;DHT22;44308;50.810;0.284;2023-05-16T03:23:26;7.20;99.90
58517;DHT22;44308;50.810;0.284;2023-05-16T03:25:51;7.20;99.90
58517;DHT22;44308;50.810;0.284;2023-05-16T03:28:18;7.20;99.90
58517;DHT22;44308;50.810;0.284;2023-05-16T03:30:44;7.30;99.90
58517;DHT22;44308;50.810;0.284;2023-05-16T03:33:10;7.30;99.90
58517;DHT22;44308;50.810;0.284;2023-05-16T03:35:35;7.30;99.90
58517;DHT22;44308;50.810;0.284;2023-05-16T03:38:02;7.30;99.90
58517;DHT22;44308;50.810;0.284;2023-05-16T03:40:28;7.30;99.90
58517;DHT22;44308;50.810;0.284;2023-05-16T03:42:53;7.20;99.90
58517;DHT22;44308;50.810;0.284;2023-05-16T03:45:19;7.30;99.90
58517;DHT22;44308;50.810;0.284;2023-05-16T03:47:45;7.20;99.90
58517;DHT22;44308;50.810;0.284;2023-05-16T03:50:13;7.20;99.90
58517;DHT22;44308;50.810;0.284;2023-05-16T03:52:38;7.20;99.90
58517;DHT22;44308;50.810;0.284;2023-05-16T03:55:04;7.20;99.90
58517;DHT22;44308;50.810;0.284;2023-05-16T03:57:31;7.20;99.90
58517;DHT22;44308;50.810;0.284;2023-05-16T03:59:57;7.10;99.90
58517;DHT22;44308;50.810;0.284;2023-05-16T04:02:23;7.10;99.90
58517;DHT22;44308;50.810;0.284;2023-05-16T04:04:49;7.10;99.90
58517;DHT22;44308;50.810;0.284;2023-05-16T04:07:14;7.10;99.90
58517;DHT22;44308;50.810;0.284;2023-05-16T04:09:40;7.20;99.90
58517;DHT22;44308;50.810;0.284;2023-05-16T04:12:06;7.20;99.90
58517;DHT22;44308;50.810;0.284;2023-05-16T04:14:33;7.20;99.90
58517;DHT22;44308;50.810;0.284;2023-05-16T04:16:59;7.20;99.90
58517;DHT22;44308;50.810;0.284;2023-05-16T04:19:25;7.20;99.90
58517;DHT22;44308;50.810;0.284;2023-05-16T04:21:50;7.20;99.90
58517;DHT22;44308;50.810;0.284;2023-05-16T04:24:17;7.20;99.90
58517;DHT22;44308;50.810;0.284;2023-05-16T04:26:43;7.20;99.90
58517;DHT22;44308;50.810;0.284;2023-05-16T04:29:08;7.30;99.90
58517;DHT22;44308;50.810;0.284;2023-05-16T04:31:34;7.30;99.90
58517;DHT22;44308;50.810;0.284;2023-05-16T04:34:01;7.30;99.90
58517;DHT22;44308;50.810;0.284;2023-05-16T04:36:27;7.30;99.90
58517;DHT22;44308;50.810;0.284;2023-05-16T04:38:55;7.30;99.90
58517;DHT22;44308;50.810;0.284;2023-05-16T04:41:21;7.30;99.90
58517;DHT22;44308;50.810;0.284;2023-05-16T04:43:47;7.40;99.90
58517;DHT22;44308;50.810;0.284;2023-05-16T04:46:13;7.40;99.90
58517;DHT22;44308;50.810;0.284;2023-05-16T04:48:40;7.40;99.90
58517;DHT22;44308;50.810;0.284;2023-05-16T04:51:06;7.40;99.90
58517;DHT22;44308;50.810;0.284;2023-05-16T04:53:32;7.50;99.90
58517;DHT22;44308;50.810;0.284;2023-05-16T04:55:58;7.50;99.90
58517;DHT22;44308;50.810;0.284;2023-05-16T04:58:24;7.50;99.90
58517;DHT22;44308;50.810;0.284;2023-05-16T05:00:50;7.60;99.90
58517;DHT22;44308;50.810;0.284;2023-05-16T05:03:17;7.60;99.90
58517;DHT22;44308;50.810;0.284;2023-05-16T05:05:42;7.70;99.90
58517;DHT22;44308;50.810;0.284;2023-05-16T05:08:08;7.70;99.90
58517;DHT22;44308;50.810;0.284;2023-05-16T05:10:34;7.80;99.90
58517;DHT22;44308;50.810;0.284;2023-05-16T05:13:00;7.80;99.90
58517;DHT22;44308;50.810;0.284;2023-05-16T05:15:26;7.80;99.90
58517;DHT22;44308;50.810;0.284;2023-05-16T05:17:52;7.80;99.90
58517;DHT22;44308;50.810;0.284;2023-05-16T05:20:18;7.90;99.90
58517;DHT22;44308;50.810;0.284;2023-05-16T05:22:43;7.90;99.90
58517;DHT22;44308;50.810;0.284;2023-05-16T05:25:09;8.00;99.90
58517;DHT22;44308;50.810;0.284;2023-05-16T05:27:35;8.10;99.90
58517;DHT22;44308;50.810;0.284;2023-05-16T05:30:01;8.10;99.90
58517;DHT22;44308;50.810;0.284;2023-05-16T05:32:27;8.20;99.90
58517;DHT22;44308;50.810;0.284;2023-05-16T05:34:52;8.30;99.90
58517;DHT22;44308;50.810;0.284;2023-05-16T05:37:18;8.40;99.90
58517;DHT22;44308;50.810;0.284;2023-05-16T05:39:44;8.40;99.90
58517;DHT22;44308;50.810;0.284;2023-05-16T05:42:10;8.50;99.90
58517;DHT22;44308;50.810;0.284;2023-05-16T05:44:36;8.60;99.90
58517;DHT22;44308;50.810;0.284;2023-05-16T05:47:03;8.70;99.90
58517;DHT22;44308;50.810;0.284;2023-05-16T05:49:30;8.80;99.90
58517;DHT22;44308;50.810;0.284;2023-05-16T05:51:56;8.90;99.90
58517;DHT22;44308;50.810;0.284;2023-05-16T05:54:22;9.00;99.90
58517;DHT22;44308;50.810;0.284;2023-05-16T05:56:48;9.00;99.90
58517;DHT22;44308;50.810;0.284;2023-05-16T05:59:14;9.10;99.90
58517;DHT22;44308;50.810;0.284;2023-05-16T06:01:40;9.10;99.90
58517;DHT22;44308;50.810;0.284;2023-05-16T06:04:06;9.20;99.90
58517;DHT22;44308;50.810;0.284;2023-05-16T06:06:32;9.20;99.90
58517;DHT22;44308;50.810;0.284;2023-05-16T06:08:58;9.30;99.90
58517;DHT22;44308;50.810;0.284;2023-05-16T06:11:24;9.40;99.90
58517;DHT22;44308;50.810;0.284;2023-05-16T06:13:50;9.40;99.90
58517;DHT22;44308;50.810;0.284;2023-05-16T06:16:16;9.50;99.90
58517;DHT22;44308;50.810;0.284;2023-05-16T06:18:42;9.50;99.90
58517;DHT22;44308;50.810;0.284;2023-05-16T06:21:08;9.70;99.90
58517;DHT22;44308;50.810;0.284;2023-05-16T06:23:33;10.00;99.90
58517;DHT22;44308;50.810;0.284;2023-05-16T06:26:03;10.60;99.90
58517;DHT22;44308;50.810;0.284;2023-05-16T06:28:30;11.50;99.90
58517;DHT22;44308;50.810;0.284;2023-05-16T06:30:56;12.30;99.90
58517;DHT22;44308;50.810;0.284;2023-05-16T06:33:22;12.90;99.90
58517;DHT22;44308;50.810;0.284;2023-05-16T06:35:47;13.70;99.90
58517;DHT22;44308;50.810;0.284;2023-05-16T06:38:17;14.50;99.90
58517;DHT22;44308;50.810;0.284;2023-05-16T06:40:46;15.20;99.90
58517;DHT22;44308;50.810;0.284;2023-05-16T06:43:12;15.70;99.90
58517;DHT22;44308;50.810;0.284;2023-05-16T06:45:38;16.00;99.90
58517;DHT22;44308;50.810;0.284;2023-05-16T06:48:05;16.60;99.90
58517;DHT22;44308;50.810;0.284;2023-05-16T06:50:32;17.20;99.90
58517;DHT22;44308;50.810;0.284;2023-05-16T06:52:57;17.40;99.90
58517;DHT22;44308;50.810;0.284;2023-05-16T06:55:23;18.00;99.90
58517;DHT22;44308;50.810;0.284;2023-05-16T06:57:49;18.50;99.90
58517;DHT22;44308;50.810;0.284;2023-05-16T07:00:18;19.00;99.90
58517;DHT22;44308;50.810;0.284;2023-05-16T07:02:44;19.30;99.90
58517;DHT22;44308;50.810;0.284;2023-05-16T07:05:09;19.70;99.90
58517;DHT22;44308;50.810;0.284;2023-05-16T07:07:35;19.80;99.90
58517;DHT22;44308;50.810;0.284;2023-05-16T07:10:03;20.30;99.90
58517;DHT22;44308;50.810;0.284;2023-05-16T07:12:34;20.00;99.90
58517;DHT22;44308;50.810;0.284;2023-05-16T07:14:59;20.10;99.90
58517;DHT22;44308;50.810;0.284;2023-05-16T07:17:25;20.20;99.90
58517;DHT22;44308;50.810;0.284;2023-05-16T07:19:51;19.90;99.90
58517;DHT22;44308;50.810;0.284;2023-05-16T07:22:16;20.00;99.90
58517;DHT22;44308;50.810;0.284;2023-05-16T07:24:42;20.00;99.90
58517;DHT22;44308;50.810;0.284;2023-05-16T07:27:08;20.00;99.90
58517;DHT22;44308;50.810;0.284;2023-05-16T07:29:36;20.40;99.90
58517;DHT22;44308;50.810;0.284;2023-05-16T07:32:02;20.40;99.90
58517;DHT22;44308;50.810;0.284;2023-05-16T07:34:28;20.60;99.90
58517;DHT22;44308;50.810;0.284;2023-05-16T07:36:54;21.00;99.90
58517;DHT22;44308;50.810;0.284;2023-05-16T07:39:19;21.00;99.90
58517;DHT22;44308;50.810;0.284;2023-05-16T07:41:48;21.10;99.90
58517;DHT22;44308;50.810;0.284;2023-05-16T07:44:14;21.10;99.90
58517;DHT22;44308;50.810;0.284;2023-05-16T07:46:40;21.20;99.90
58517;DHT22;44308;50.810;0.284;2023-05-16T07:49:07;21.30;99.90
58517;DHT22;44308;50.810;0.284;2023-05-16T07:51:32;21.80;99.90
58517;DHT22;44308;50.810;0.284;2023-05-16T07:53:58;21.50;99.90
58517;DHT22;44308;50.810;0.284;2023-05-16T07:56:24;21.50;99.90
58517;DHT22;44308;50.810;0.284;2023-05-16T07:58:49;21.60;99.90
58517;DHT22;44308;50.810;0.284;2023-05-16T08:01:16;21.70;99.90
58517;DHT22;44308;50.810;0.284;2023-05-16T08:03:41;22.00;99.90
58517;DHT22;44308;50.810;0.284;2023-05-16T08:06:07;22.70;99.90
58517;DHT22;44308;50.810;0.284;2023-05-16T08:08:33;22.70;99.90
58517;DHT22;44308;50.810;0.284;2023-05-16T08:10:58;22.90;99.90
58517;DHT22;44308;50.810;0.284;2023-05-16T08:13:24;22.60;99.90
58517;DHT22;44308;50.810;0.284;2023-05-16T08:15:50;22.50;99.90
58517;DHT22;44308;50.810;0.284;2023-05-16T08:18:15;22.80;99.90
58517;DHT22;44308;50.810;0.284;2023-05-16T08:20:41;22.80;99.90
58517;DHT22;44308;50.810;0.284;2023-05-16T08:23:08;22.10;99.90
58517;DHT22;44308;50.810;0.284;2023-05-16T08:25:34;22.50;99.90
58517;DHT22;44308;50.810;0.284;2023-05-16T08:28:00;23.00;99.90
58517;DHT22;44308;50.810;0.284;2023-05-16T08:30:27;22.80;99.90
58517;DHT22;44308;50.810;0.284;2023-05-16T08:32:55;22.80;99.90
58517;DHT22;44308;50.810;0.284;2023-05-16T08:35:21;22.70;99.90
58517;DHT22;44308;50.810;0.284;2023-05-16T08:37:49;22.80;99.90
58517;DHT22;44308;50.810;0.284;2023-05-16T08:40:15;22.80;99.90
58517;DHT22;44308;50.810;0.284;2023-05-16T08:42:41;22.50;99.90
58517;DHT22;44308;50.810;0.284;2023-05-16T08:45:07;22.50;99.90
58517;DHT22;44308;50.810;0.284;2023-05-16T08:47:34;22.50;99.90
58517;DHT22;44308;50.810;0.284;2023-05-16T08:50:02;23.10;99.90
58517;DHT22;44308;50.810;0.284;2023-05-16T08:52:30;23.10;99.90
58517;DHT22;44308;50.810;0.284;2023-05-16T08:55:01;23.20;99.90
58517;DHT22;44308;50.810;0.284;2023-05-16T08:57:38;23.70;99.90
58517;DHT22;44308;50.810;0.284;2023-05-16T09:00:06;23.20;99.90
58517;DHT22;44308;50.810;0.284;2023-05-16T09:02:45;23.10;99.90
58517;DHT22;44308;50.810;0.284;2023-05-16T09:05:13;23.10;99.90
58517;DHT22;44308;50.810;0.284;2023-05-16T09:07:40;22.80;99.90
58517;DHT22;44308;50.810;0.284;2023-05-16T09:10:06;23.20;99.90
58517;DHT22;44308;50.810;0.284;2023-05-16T09:12:35;23.10;99.90
58517;DHT22;44308;50.810;0.284;2023-05-16T09:15:03;23.60;99.90
58517;DHT22;44308;50.810;0.284;2023-05-16T09:17:37;23.20;99.90
58517;DHT22;44308;50.810;0.284;2023-05-16T09:20:14;23.30;99.90
58517;DHT22;44308;50.810;0.284;2023-05-16T09:22:50;23.40;99.90
58517;DHT22;44308;50.810;0.284;2023-05-16T09:25:16;23.40;99.90
58517;DHT22;44308;50.810;0.284;2023-05-16T09:27:42;23.60;99.90
58517;DHT22;44308;50.810;0.284;2023-05-16T09:30:09;23.10;99.90
58517;DHT22;44308;50.810;0.284;2023-05-16T09:32:51;21.90;99.90
58517;DHT22;44308;50.810;0.284;2023-05-16T09:35:18;21.80;99.90
58517;DHT22;44308;50.810;0.284;2023-05-16T09:37:48;21.70;99.90
58517;DHT22;44308;50.810;0.284;2023-05-16T09:40:15;22.60;99.90
58517;DHT22;44308;50.810;0.284;2023-05-16T09:42:44;22.70;99.90
58517;DHT22;44308;50.810;0.284;2023-05-16T09:45:12;22.10;99.90
58517;DHT22;44308;50.810;0.284;2023-05-16T09:47:38;22.10;99.90
58517;DHT22;44308;50.810;0.284;2023-05-16T09:50:13;22.20;99.90
58517;DHT22;44308;50.810;0.284;2023-05-16T09:52:42;22.10;99.90
58517;DHT22;44308;50.810;0.284;2023-05-16T09:55:09;22.30;99.90
58517;DHT22;44308;50.810;0.284;2023-05-16T09:57:38;22.40;99.90
58517;DHT22;44308;50.810;0.284;2023-05-16T10:00:09;22.90;99.90
58517;DHT22;44308;50.810;0.284;2023-05-16T10:02:36;23.50;99.90
58517;DHT22;44308;50.810;0.284;2023-05-16T10:05:03;23.40;99.90
58517;DHT22;44308;50.810;0.284;2023-05-16T10:07:30;23.30;99.90
58517;DHT22;44308;50.810;0.284;2023-05-16T10:10:00;23.00;99.90
58517;DHT22;44308;50.810;0.284;2023-05-16T10:12:29;23.00;99.90
58517;DHT22;44308;50.810;0.284;2023-05-16T10:15:00;23.30;99.90
58517;DHT22;44308;50.810;0.284;2023-05-16T10:17:30;23.70;99.90
58517;DHT22;44308;50.810;0.284;2023-05-16T10:19:57;23.60;99.90
58517;DHT22;44308;50.810;0.284;2023-05-16T10:22:35;24.40;99.90
58517;DHT22;44308;50.810;0.284;2023-05-16T10:25:28;24.40;99.90
58517;DHT22;44308;50.810;0.284;2023-05-16T10:31:01;23.80;99.90
58517;DHT22;44308;50.810;0.284;2023-05-16T10:33:28;22.70;99.90
58517;DHT22;44308;50.810;0.284;2023-05-16T10:36:00;22.50;99.90
58517;DHT22;44308;50.810;0.284;2023-05-16T10:38:27;22.80;99.90
58517;DHT22;44308;50.810;0.284;2023-05-16T10:40:57;23.40;99.90
58517;DHT22;44308;50.810;0.284;2023-05-16T10:43:31;23.10;99.90
58517;DHT22;44308;50.810;0.284;2023-05-16T10:46:08;22.30;99.90
58517;DHT22;44308;50.810;0.284;2023-05-16T10:48:44;21.60;99.90
58517;DHT22;44308;50.810;0.284;2023-05-16T10:56:54;23.20;99.90
58517;DHT22;44308;50.810;0.284;2023-05-16T10:59:47;23.60;99.90
58517;DHT22;44308;50.810;0.284;2023-05-16T11:02:27;24.10;99.90
58517;DHT22;44308;50.810;0.284;2023-05-16T11:05:01;24.40;99.90
58517;DHT22;44308;50.810;0.284;2023-05-16T11:07:34;24.20;99.90
58517;DHT22;44308;50.810;0.284;2023-05-16T11:10:15;23.80;99.90
58517;DHT22;44308;50.810;0.284;2023-05-16T11:12:51;23.30;99.90
58517;DHT22;44308;50.810;0.284;2023-05-16T11:15:30;22.20;99.90
58517;DHT22;44308;50.810;0.284;2023-05-16T11:18:23;21.60;99.90
58517;DHT22;44308;50.810;0.284;2023-05-16T11:20:50;20.90;99.90
58517;DHT22;44308;50.810;0.284;2023-05-16T11:23:24;20.90;99.90
58517;DHT22;44308;50.810;0.284;2023-05-16T11:25:56;20.80;99.90
58517;DHT22;44308;50.810;0.284;2023-05-16T11:28:24;20.20;99.90
58517;DHT22;44308;50.810;0.284;2023-05-16T11:30:52;20.00;99.90
58517;DHT22;44308;50.810;0.284;2023-05-16T11:33:21;20.10;99.90
58517;DHT22;44308;50.810;0.284;2023-05-16T11:36:07;20.10;99.90
58517;DHT22;44308;50.810;0.284;2023-05-16T11:38:36;20.90;99.90
58517;DHT22;44308;50.810;0.284;2023-05-16T11:41:06;22.10;99.90
58517;DHT22;44308;50.810;0.284;2023-05-16T11:43:40;21.60;99.90
58517;DHT22;44308;50.810;0.284;2023-05-16T11:46:32;21.40;99.90
58517;DHT22;44308;50.810;0.284;2023-05-16T11:48:58;20.80;99.90
58517;DHT22;44308;50.810;0.284;2023-05-16T11:51:23;20.30;99.90
58517;DHT22;44308;50.810;0.284;2023-05-16T11:53:49;20.50;99.90
58517;DHT22;44308;50.810;0.284;2023-05-16T11:56:21;21.10;99.90
58517;DHT22;44308;50.810;0.284;2023-05-16T11:58:48;22.20;99.90
58517;DHT22;44308;50.810;0.284;2023-05-16T12:01:20;22.00;99.90
58517;DHT22;44308;50.810;0.284;2023-05-16T12:03:54;22.10;99.90
58517;DHT22;44308;50.810;0.284;2023-05-16T12:06:20;21.50;99.90
58517;DHT22;44308;50.810;0.284;2023-05-16T12:08:54;21.20;99.90
58517;DHT22;44308;50.810;0.284;2023-05-16T12:11:25;20.80;99.90
58517;DHT22;44308;50.810;0.284;2023-05-16T12:13:51;20.80;99.90
58517;DHT22;44308;50.810;0.284;2023-05-16T12:16:17;21.20;99.90
58517;DHT22;44308;50.810;0.284;2023-05-16T12:18:43;21.60;99.90
58517;DHT22;44308;50.810;0.284;2023-05-16T12:21:09;22.10;99.90
58517;DHT22;44308;50.810;0.284;2023-05-16T12:23:35;22.30;99.90
58517;DHT22;44308;50.810;0.284;2023-05-16T12:26:02;22.60;99.90
58517;DHT22;44308;50.810;0.284;2023-05-16T12:28:32;23.00;99.90
58517;DHT22;44308;50.810;0.284;2023-05-16T12:30:59;23.00;99.90
58517;DHT22;44308;50.810;0.284;2023-05-16T12:33:25;22.70;99.90
58517;DHT22;44308;50.810;0.284;2023-05-16T12:35:53;22.50;99.90
58517;DHT22;44308;50.810;0.284;2023-05-16T12:38:20;22.20;99.90
58517;DHT22;44308;50.810;0.284;2023-05-16T12:40:46;22.30;99.90
58517;DHT22;44308;50.810;0.284;2023-05-16T12:43:19;22.60;99.90
58517;DHT22;44308;50.810;0.284;2023-05-16T12:45:53;22.50;99.90
58517;DHT22;44308;50.810;0.284;2023-05-16T12:48:19;22.30;99.90
58517;DHT22;44308;50.810;0.284;2023-05-16T12:50:45;21.90;99.90
58517;DHT22;44308;50.810;0.284;2023-05-16T12:53:12;21.40;99.90
58517;DHT22;44308;50.810;0.284;2023-05-16T12:55:38;20.80;99.90
58517;DHT22;44308;50.810;0.284;2023-05-16T12:58:04;20.70;99.90
58517;DHT22;44308;50.810;0.284;2023-05-16T13:00:30;20.40;99.90
58517;DHT22;44308;50.810;0.284;2023-05-16T13:02:56;20.30;99.90
58517;DHT22;44308;50.810;0.284;2023-05-16T13:05:22;20.40;99.90
58517;DHT22;44308;50.810;0.284;2023-05-16T13:07:48;20.50;99.90
58517;DHT22;44308;50.810;0.284;2023-05-16T13:10:16;21.00;99.90
58517;DHT22;44308;50.810;0.284;2023-05-16T13:12:43;21.20;99.90
58517;DHT22;44308;50.810;0.284;2023-05-16T13:15:10;21.40;99.90
58517;DHT22;44308;50.810;0.284;2023-05-16T13:17:41;21.10;99.90
58517;DHT22;44308;50.810;0.284;2023-05-16T13:20:09;21.10;99.90
58517;DHT22;44308;50.810;0.284;2023-05-16T13:22:38;21.30;99.90
58517;DHT22;44308;50.810;0.284;2023-05-16T13:25:04;21.20;99.90
58517;DHT22;44308;50.810;0.284;2023-05-16T13:27:31;21.00;99.90
58517;DHT22;44308;50.810;0.284;2023-05-16T13:29:57;21.50;99.90
58517;DHT22;44308;50.810;0.284;2023-05-16T13:32:23;22.30;99.90
58517;DHT22;44308;50.810;0.284;2023-05-16T13:34:50;22.60;99.90
58517;DHT22;44308;50.810;0.284;2023-05-16T13:37:16;22.30;99.90
58517;DHT22;44308;50.810;0.284;2023-05-16T13:39:42;22.10;99.90
58517;DHT22;44308;50.810;0.284;2023-05-16T13:42:07;22.10;99.90
58517;DHT22;44308;50.810;0.284;2023-05-16T13:44:33;22.20;99.90
58517;DHT22;44308;50.810;0.284;2023-05-16T13:46:59;22.10;99.90
58517;DHT22;44308;50.810;0.284;2023-05-16T13:49:25;22.00;99.90
58517;DHT22;44308;50.810;0.284;2023-05-16T13:51:51;21.60;99.90
58517;DHT22;44308;50.810;0.284;2023-05-16T13:54:18;21.90;99.90
58517;DHT22;44308;50.810;0.284;2023-05-16T13:56:43;22.00;99.90
58517;DHT22;44308;50.810;0.284;2023-05-16T13:59:10;21.70;99.90
58517;DHT22;44308;50.810;0.284;2023-05-16T14:01:36;21.20;99.90
58517;DHT22;44308;50.810;0.284;2023-05-16T14:04:02;21.00;99.90
58517;DHT22;44308;50.810;0.284;2023-05-16T14:06:28;20.90;99.90
58517;DHT22;44308;50.810;0.284;2023-05-16T14:08:54;20.90;99.90
58517;DHT22;44308;50.810;0.284;2023-05-16T14:11:19;20.90;99.90
58517;DHT22;44308;50.810;0.284;2023-05-16T14:13:47;21.30;99.90
58517;DHT22;44308;50.810;0.284;2023-05-16T14:16:14;21.70;99.90
58517;DHT22;44308;50.810;0.284;2023-05-16T14:18:39;22.10;99.90
58517;DHT22;44308;50.810;0.284;2023-05-16T14:21:05;22.50;99.90
58517;DHT22;44308;50.810;0.284;2023-05-16T14:23:31;23.00;99.90
58517;DHT22;44308;50.810;0.284;2023-05-16T14:25:56;22.40;99.90
58517;DHT22;44308;50.810;0.284;2023-05-16T14:28:22;21.70;99.90
58517;DHT22;44308;50.810;0.284;2023-05-16T14:30:48;21.10;99.90
58517;DHT22;44308;50.810;0.284;2023-05-16T14:33:13;21.40;99.90
58517;DHT22;44308;50.810;0.284;2023-05-16T14:35:39;21.80;99.90
58517;DHT22;44308;50.810;0.284;2023-05-16T14:38:05;22.10;99.90
58517;DHT22;44308;50.810;0.284;2023-05-16T14:40:32;22.60;99.90
58517;DHT22;44308;50.810;0.284;2023-05-16T14:42:58;22.50;99.90
58517;DHT22;44308;50.810;0.284;2023-05-16T14:45:25;22.20;99.90
58517;DHT22;44308;50.810;0.284;2023-05-16T14:47:51;21.90;99.90
58517;DHT22;44308;50.810;0.284;2023-05-16T14:50:17;21.70;99.90
58517;DHT22;44308;50.810;0.284;2023-05-16T14:52:42;21.60;99.90
58517;DHT22;44308;50.810;0.284;2023-05-16T14:55:09;21.70;99.90
58517;DHT22;44308;50.810;0.284;2023-05-16T14:57:35;22.00;99.90
58517;DHT22;44308;50.810;0.284;2023-05-16T15:00:01;22.30;99.90
58517;DHT22;44308;50.810;0.284;2023-05-16T15:02:27;22.40;99.90
58517;DHT22;44308;50.810;0.284;2023-05-16T15:04:53;22.10;99.90
58517;DHT22;44308;50.810;0.284;2023-05-16T15:07:19;21.90;99.90
58517;DHT22;44308;50.810;0.284;2023-05-16T15:09:45;21.90;99.90
58517;DHT22;44308;50.810;0.284;2023-05-16T15:12:10;21.50;99.90
58517;DHT22;44308;50.810;0.284;2023-05-16T15:14:39;21.70;99.90
58517;DHT22;44308;50.810;0.284;2023-05-16T15:17:05;22.10;99.90
58517;DHT22;44308;50.810;0.284;2023-05-16T15:19:31;22.30;99.90
58517;DHT22;44308;50.810;0.284;2023-05-16T15:21:56;22.20;99.90
58517;DHT22;44308;50.810;0.284;2023-05-16T15:24:23;22.20;99.90
58517;DHT22;44308;50.810;0.284;2023-05-16T15:26:49;22.10;99.90
58517;DHT22;44308;50.810;0.284;2023-05-16T15:29:16;22.10;99.90
58517;DHT22;44308;50.810;0.284;2023-05-16T15:31:45;22.00;99.90
58517;DHT22;44308;50.810;0.284;2023-05-16T15:34:11;22.10;99.90
58517;DHT22;44308;50.810;0.284;2023-05-16T15:36:36;22.30;99.90
58517;DHT22;44308;50.810;0.284;2023-05-16T15:39:02;22.30;99.90
58517;DHT22;44308;50.810;0.284;2023-05-16T15:41:31;22.30;99.90
58517;DHT22;44308;50.810;0.284;2023-05-16T15:43:56;22.10;99.90
58517;DHT22;44308;50.810;0.284;2023-05-16T15:46:22;21.60;99.90
58517;DHT22;44308;50.810;0.284;2023-05-16T15:48:51;21.70;99.90
58517;DHT22;44308;50.810;0.284;2023-05-16T15:51:23;21.50;99.90
58517;DHT22;44308;50.810;0.284;2023-05-16T15:53:51;21.50;99.90
58517;DHT22;44308;50.810;0.284;2023-05-16T15:56:24;21.70;99.90
58517;DHT22;44308;50.810;0.284;2023-05-16T15:58:51;22.10;99.90
58517;DHT22;44308;50.810;0.284;2023-05-16T16:01:17;21.90;99.90
58517;DHT22;44308;50.810;0.284;2023-05-16T16:03:42;22.00;99.90